createdAt,value
2022-10-15T00:01:16.872Z,18.17
2022-10-15T00:03:44.921Z,19.30
2022-10-15T00:06:14.528Z,22.13
2022-10-15T00:08:41.442Z,24.67
2022-10-15T00:11:14.509Z,18.97
2022-10-15T00:13:41.775Z,26.27
2022-10-15T00:16:13.074Z,20.40
2022-10-15T00:18:40.858Z,22.40
2022-10-15T00:21:09.031Z,21.77
2022-10-15T00:23:36.419Z,21.10
2022-10-15T00:26:05.870Z,24.50
2022-10-15T00:28:34.435Z,24.90
2022-10-15T00:33:31.437Z,21.93
2022-10-15T00:36:03.037Z,24.27
2022-10-15T00:38:30.249Z,25.37
2022-10-15T00:40:57.754Z,26.13
2022-10-15T00:43:47.743Z,27.87
2022-10-15T00:46:19.918Z,27.50
2022-10-15T00:48:49.715Z,30.17
2022-10-15T00:51:19.218Z,29.70
2022-10-15T00:53:47.122Z,30.27
2022-10-15T00:56:16.552Z,32.73
2022-10-15T00:58:43.851Z,27.40
2022-10-15T01:01:10.636Z,33.27
2022-10-15T01:03:37.595Z,31.47
2022-10-15T01:06:04.651Z,35.03
2022-10-15T01:08:33.934Z,29.37
2022-10-15T01:11:17.580Z,29.10
2022-10-15T01:13:52.913Z,31.30
2022-10-15T01:16:33.119Z,30.17
2022-10-15T01:19:24.871Z,32.07
2022-10-15T01:22:01.928Z,31.33
2022-10-15T01:24:34.600Z,30.13
2022-10-15T01:27:22.416Z,32.37
2022-10-15T01:30:00.500Z,36.67
2022-10-15T01:32:29.830Z,33.40
2022-10-15T01:35:00.267Z,33.50
2022-10-15T01:37:41.066Z,31.97
2022-10-15T01:40:23.986Z,34.90
2022-10-15T01:42:57.142Z,32.50
2022-10-15T01:45:57.275Z,35.43
2022-10-15T01:48:41.023Z,35.20
2022-10-15T01:51:10.197Z,38.03
2022-10-15T01:53:40.218Z,34.70
2022-10-15T01:56:12.120Z,39.20
2022-10-15T01:58:42.080Z,38.00
2022-10-15T02:01:09.721Z,45.47
2022-10-15T02:03:51.537Z,46.17
2022-10-15T02:06:28.781Z,52.17
2022-10-15T02:09:04.424Z,42.43
2022-10-15T02:11:42.816Z,38.87
2022-10-15T02:14:16.096Z,46.90
2022-10-15T02:16:52.193Z,55.10
2022-10-15T02:19:25.836Z,56.70
2022-10-15T02:22:01.345Z,53.50
2022-10-15T02:24:39.539Z,55.27
2022-10-15T02:27:08.513Z,54.10
2022-10-15T02:29:38.766Z,68.90
2022-10-15T02:32:07.412Z,63.40
2022-10-15T02:34:35.664Z,55.67
2022-10-15T02:37:04.524Z,57.97
2022-10-15T02:39:33.956Z,54.47
2022-10-15T02:42:01.669Z,49.63
2022-10-15T02:44:28.605Z,65.57
2022-10-15T02:46:58.078Z,64.93
2022-10-15T02:49:24.693Z,61.73
2022-10-15T02:51:51.349Z,51.67
2022-10-15T02:54:17.981Z,64.13
2022-10-15T02:56:47.156Z,61.27
2022-10-15T02:59:14.587Z,66.97
2022-10-15T03:01:41.522Z,76.13
2022-10-15T03:04:09.305Z,79.87
2022-10-15T03:06:36.563Z,76.20
2022-10-15T03:09:04.154Z,76.00
2022-10-15T03:11:32.140Z,75.17
2022-10-15T03:13:58.786Z,73.77
2022-10-15T03:16:25.327Z,70.57
2022-10-15T03:18:52.829Z,74.40
2022-10-15T03:21:19.358Z,72.30
2022-10-15T03:23:46.847Z,68.87
2022-10-15T03:26:18.763Z,76.73
2022-10-15T03:28:45.621Z,79.57
2022-10-15T03:31:19.171Z,66.10
2022-10-15T03:33:48.461Z,72.83
2022-10-15T03:36:16.853Z,75.07
2022-10-15T03:38:43.483Z,79.73
2022-10-15T03:41:13.394Z,82.80
2022-10-15T03:43:42.876Z,77.27
2022-10-15T03:46:10.429Z,77.53
2022-10-15T03:48:41.190Z,83.47
2022-10-15T03:51:09.618Z,80.73
2022-10-15T03:53:36.429Z,80.40
2022-10-15T03:56:06.788Z,78.37
2022-10-15T03:58:37.079Z,69.13
2022-10-15T04:01:13.546Z,76.60
2022-10-15T04:03:40.778Z,74.20
2022-10-15T04:06:08.413Z,65.57
2022-10-15T04:08:35.562Z,74.03
2022-10-15T04:11:16.492Z,77.33
2022-10-15T04:13:44.299Z,69.83
2022-10-15T04:16:11.204Z,77.67
2022-10-15T04:18:38.027Z,73.17
2022-10-15T04:21:04.670Z,79.60
2022-10-15T04:23:32.345Z,76.60
2022-10-15T04:26:17.655Z,78.20
2022-10-15T04:28:44.626Z,78.00
2022-10-15T04:31:11.929Z,82.80
2022-10-15T04:33:39.506Z,78.83
2022-10-15T04:36:13.468Z,86.10
2022-10-15T04:38:53.449Z,91.57
2022-10-15T04:41:46.095Z,85.20
2022-10-15T04:44:25.629Z,99.77
2022-10-15T04:46:55.849Z,94.13
2022-10-15T04:49:31.013Z,97.07
2022-10-15T04:51:57.645Z,100.90
2022-10-15T04:54:37.240Z,89.27
2022-10-15T04:57:05.570Z,86.83
2022-10-15T04:59:33.079Z,91.63
2022-10-15T05:02:18.279Z,91.07
2022-10-15T05:04:49.168Z,87.93
2022-10-15T05:07:16.227Z,83.33
2022-10-15T05:09:46.478Z,73.50
2022-10-15T05:12:13.285Z,78.80
2022-10-15T05:14:40.342Z,79.07
2022-10-15T05:17:16.626Z,82.50
2022-10-15T05:19:44.395Z,73.13
2022-10-15T05:22:17.839Z,72.73
2022-10-15T05:24:51.170Z,77.20
2022-10-15T05:27:37.366Z,80.70
2022-10-15T05:30:06.088Z,91.93
2022-10-15T05:32:54.473Z,77.30
2022-10-15T05:35:22.821Z,85.40
2022-10-15T05:37:54.735Z,87.27
2022-10-15T05:40:22.729Z,90.07
2022-10-15T05:43:02.719Z,89.87
2022-10-15T05:45:29.305Z,97.50
2022-10-15T05:48:01.781Z,85.93
2022-10-15T05:50:28.666Z,82.47
2022-10-15T05:52:56.643Z,85.70
2022-10-15T05:55:30.171Z,82.97
2022-10-15T05:58:01.353Z,85.60
2022-10-15T06:00:28.150Z,114.43
2022-10-15T06:02:54.792Z,96.57
2022-10-15T06:05:22.337Z,103.00
2022-10-15T06:07:48.894Z,88.63
2022-10-15T06:10:15.625Z,100.13
2022-10-15T06:12:42.738Z,77.83
2022-10-15T06:15:09.762Z,77.70
2022-10-15T06:17:37.422Z,104.80
2022-10-15T06:20:04.273Z,85.00
2022-10-15T06:22:31.268Z,98.97
2022-10-15T06:24:58.107Z,76.67
2022-10-15T06:27:25.373Z,75.40
2022-10-15T06:29:52.130Z,87.17
2022-10-15T06:32:18.649Z,99.63
2022-10-15T06:34:45.211Z,88.33
2022-10-15T06:37:11.787Z,93.63
2022-10-15T06:39:39.714Z,113.23
2022-10-15T06:42:06.277Z,130.50
2022-10-15T06:44:39.359Z,85.70
2022-10-15T06:47:06.212Z,79.37
2022-10-15T06:49:34.035Z,92.63
2022-10-15T06:52:03.530Z,79.10
2022-10-15T06:54:30.308Z,85.50
2022-10-15T06:56:56.816Z,81.30
2022-10-15T06:59:23.620Z,83.17
2022-10-15T07:01:50.382Z,72.90
2022-10-15T07:04:16.967Z,81.03
2022-10-15T07:06:43.767Z,79.10
2022-10-15T07:09:10.579Z,76.50
2022-10-15T07:11:37.510Z,72.60
2022-10-15T07:14:04.501Z,66.00
2022-10-15T07:16:31.323Z,61.60
2022-10-15T07:18:57.914Z,61.23
2022-10-15T07:21:24.726Z,64.60
2022-10-15T07:23:51.791Z,59.00
2022-10-15T07:26:18.383Z,55.37
2022-10-15T07:28:45.324Z,61.20
2022-10-15T07:31:12.038Z,58.57
2022-10-15T07:33:39.169Z,68.40
2022-10-15T07:36:09.314Z,48.00
2022-10-15T07:38:36.689Z,48.43
2022-10-15T07:41:04.602Z,46.10
2022-10-15T07:43:32.585Z,45.00
2022-10-15T07:45:59.100Z,47.80
2022-10-15T07:48:26.043Z,44.80
2022-10-15T07:51:00.262Z,46.90
2022-10-15T07:53:27.166Z,45.00
2022-10-15T07:56:04.608Z,46.37
2022-10-15T07:58:34.613Z,47.73
2022-10-15T08:01:02.539Z,47.00
2022-10-15T08:03:30.508Z,51.37
2022-10-15T08:06:00.117Z,44.53
2022-10-15T08:08:29.156Z,44.67
2022-10-15T08:10:55.919Z,49.10
2022-10-15T08:13:22.944Z,50.33
2022-10-15T08:15:50.641Z,40.80
2022-10-15T08:18:17.201Z,45.33
2022-10-15T08:20:43.798Z,46.67
2022-10-15T08:23:16.024Z,45.73
2022-10-15T08:25:42.793Z,45.63
2022-10-15T08:28:12.433Z,41.50
2022-10-15T08:30:38.973Z,50.57
2022-10-15T08:33:12.470Z,45.70
2022-10-15T08:35:43.588Z,41.27
2022-10-15T08:38:16.049Z,44.63
2022-10-15T08:40:55.798Z,43.70
2022-10-15T08:43:40.320Z,41.87
2022-10-15T08:46:19.654Z,43.47
2022-10-15T08:48:50.942Z,42.80
2022-10-15T08:51:21.413Z,44.67
2022-10-15T08:53:55.062Z,38.00
2022-10-15T08:56:27.214Z,43.40
2022-10-15T08:58:59.426Z,34.40
2022-10-15T09:01:44.872Z,31.80
2022-10-15T09:04:31.318Z,44.33
2022-10-15T09:07:13.470Z,34.80
2022-10-15T09:09:58.347Z,31.50
2022-10-15T09:13:16.818Z,33.07
2022-10-15T09:16:10.809Z,36.00
2022-10-15T09:18:38.706Z,37.90
2022-10-15T09:21:05.903Z,33.53
2022-10-15T09:23:33.700Z,30.57
2022-10-15T09:26:04.414Z,35.30
2022-10-15T09:28:43.410Z,37.30
2022-10-15T09:31:16.883Z,35.77
2022-10-15T09:33:50.487Z,26.43
2022-10-15T09:36:35.557Z,27.07
2022-10-15T09:39:31.087Z,29.93
2022-10-15T09:42:06.805Z,26.80
2022-10-15T09:44:39.841Z,29.63
2022-10-15T09:47:22.991Z,25.97
2022-10-15T09:49:49.513Z,29.53
2022-10-15T09:52:27.607Z,24.77
2022-10-15T09:55:02.657Z,26.37
2022-10-15T09:57:32.344Z,23.60
2022-10-15T10:00:03.902Z,23.63
2022-10-15T10:02:39.219Z,26.10
2022-10-15T10:05:32.205Z,18.73
2022-10-15T10:08:24.324Z,19.17
2022-10-15T10:10:55.496Z,22.30
2022-10-15T10:13:35.847Z,21.77
2022-10-15T10:16:08.865Z,23.83
2022-10-15T10:18:37.561Z,19.77
2022-10-15T10:21:07.022Z,24.93
2022-10-15T10:23:39.388Z,25.03
2022-10-15T10:26:09.109Z,21.80
2022-10-15T10:28:56.660Z,19.00
2022-10-15T10:31:33.430Z,22.27
2022-10-15T10:34:03.865Z,19.43
2022-10-15T10:36:34.365Z,18.50
2022-10-15T10:39:10.026Z,18.53
2022-10-15T10:42:00.418Z,17.83
2022-10-15T10:44:36.032Z,20.77
2022-10-15T10:47:10.356Z,28.23
2022-10-15T10:49:39.965Z,20.47
2022-10-15T10:52:24.299Z,23.90
2022-10-15T10:55:17.589Z,23.97
2022-10-15T10:57:50.281Z,21.97
2022-10-15T11:00:52.702Z,24.13
2022-10-15T11:03:27.990Z,27.13
2022-10-15T11:06:19.456Z,24.87
2022-10-15T11:09:11.054Z,28.70
2022-10-15T11:11:52.892Z,27.20
2022-10-15T11:14:33.752Z,25.83
2022-10-15T11:17:07.705Z,27.77
2022-10-15T11:20:05.709Z,27.93
2022-10-15T11:22:49.406Z,27.63
2022-10-15T11:25:21.703Z,24.13
2022-10-15T11:28:10.464Z,26.50
2022-10-15T11:30:58.589Z,25.63
2022-10-15T11:33:41.782Z,28.73
2022-10-15T11:36:39.067Z,30.80
2022-10-15T11:39:41.243Z,35.00
2022-10-15T11:42:24.925Z,27.33
2022-10-15T11:45:18.491Z,27.47
2022-10-15T11:47:56.085Z,26.50
2022-10-15T11:50:32.343Z,26.90
2022-10-15T11:53:35.842Z,26.63
2022-10-15T11:56:26.645Z,28.13
2022-10-15T11:59:03.155Z,24.77
2022-10-15T12:01:37.314Z,24.40
2022-10-15T12:04:19.102Z,25.07
2022-10-15T12:06:51.448Z,24.73
2022-10-15T12:09:40.970Z,23.83
2022-10-15T12:12:39.701Z,19.53
2022-10-15T12:15:21.673Z,21.83
2022-10-15T12:17:58.676Z,26.47
2022-10-15T12:20:27.038Z,21.20
2022-10-15T12:22:57.806Z,26.67
2022-10-15T12:25:41.775Z,21.90
2022-10-15T12:28:08.237Z,18.17
2022-10-15T12:30:37.571Z,23.10
2022-10-15T12:33:24.414Z,18.53
2022-10-15T12:35:57.218Z,18.33
2022-10-15T12:38:33.348Z,22.77
2022-10-15T12:41:08.079Z,16.93
2022-10-15T12:43:38.375Z,21.90
2022-10-15T12:46:07.583Z,16.83
2022-10-15T12:48:47.211Z,17.70
2022-10-15T12:51:16.711Z,18.07
2022-10-15T12:53:45.167Z,18.53
2022-10-15T12:56:11.869Z,18.13
2022-10-15T12:58:42.076Z,15.20
2022-10-15T13:01:14.438Z,14.43
2022-10-15T13:03:53.497Z,14.80
2022-10-15T13:06:19.971Z,13.20
2022-10-15T13:09:12.144Z,15.30
2022-10-15T13:14:39.910Z,13.40
2022-10-15T13:17:15.781Z,12.50
2022-10-15T13:20:04.481Z,19.10
2022-10-15T13:22:33.062Z,14.30
2022-10-15T13:25:00.021Z,14.57
2022-10-15T13:27:29.341Z,13.73
2022-10-15T13:30:02.109Z,18.60
2022-10-15T13:32:43.589Z,12.73
2022-10-15T13:35:13.395Z,13.93
2022-10-15T13:37:42.753Z,15.17
2022-10-15T13:40:22.945Z,12.27
2022-10-15T13:43:00.515Z,12.07
2022-10-15T13:45:27.605Z,10.30
2022-10-15T13:47:54.925Z,13.10
2022-10-15T13:50:27.753Z,10.50
2022-10-15T13:53:00.305Z,10.43
2022-10-15T13:55:29.054Z,12.80
2022-10-15T13:58:01.718Z,10.10
2022-10-15T14:00:32.411Z,9.73
2022-10-15T14:03:22.093Z,10.90
2022-10-15T14:05:51.024Z,7.97
2022-10-15T14:08:19.258Z,6.70
2022-10-15T14:10:46.936Z,6.20
2022-10-15T14:13:13.729Z,5.47
2022-10-15T14:15:41.333Z,5.77
2022-10-15T14:18:08.659Z,5.90
2022-10-15T14:20:35.221Z,6.23
2022-10-15T14:23:02.160Z,6.17
2022-10-15T14:25:28.755Z,7.70
2022-10-15T14:27:55.713Z,5.13
2022-10-15T14:30:30.557Z,5.60
2022-10-15T14:32:57.287Z,8.10
2022-10-15T14:35:25.447Z,6.10
2022-10-15T14:38:02.447Z,6.40
2022-10-15T14:40:29.348Z,6.07
2022-10-15T14:42:55.814Z,6.73
2022-10-15T14:45:31.686Z,7.53
2022-10-15T14:48:01.029Z,5.60
2022-10-15T14:50:33.717Z,6.80
2022-10-15T14:53:05.254Z,5.60
2022-10-15T14:55:38.148Z,5.83
2022-10-15T14:58:09.868Z,6.27
2022-10-15T15:00:43.050Z,5.23
2022-10-15T15:03:40.011Z,5.93
2022-10-15T15:06:07.576Z,4.87
2022-10-15T15:08:34.134Z,4.53
2022-10-15T15:11:03.909Z,4.80
2022-10-15T15:13:38.667Z,5.50
2022-10-15T15:16:05.549Z,4.70
2022-10-15T15:18:32.172Z,4.30
2022-10-15T15:21:03.122Z,3.63
2022-10-15T15:23:30.269Z,3.73
2022-10-15T15:25:57.043Z,3.50
2022-10-15T15:28:26.585Z,6.70
2022-10-15T15:30:58.663Z,4.30
2022-10-15T15:33:28.155Z,4.00
2022-10-15T15:36:05.280Z,4.53
2022-10-15T15:38:32.178Z,4.77
2022-10-15T15:41:13.070Z,4.00
2022-10-15T15:43:40.012Z,5.93
2022-10-15T15:46:07.195Z,8.80
2022-10-15T15:48:34.161Z,5.77
2022-10-15T15:51:07.381Z,3.93
2022-10-15T15:53:35.257Z,4.80
2022-10-15T15:56:01.868Z,3.63
2022-10-15T15:58:28.854Z,3.40
2022-10-15T16:00:55.381Z,5.40
2022-10-15T16:03:21.967Z,3.90
2022-10-15T16:08:21.476Z,4.07
2022-10-15T16:10:48.032Z,5.00
2022-10-15T16:13:14.682Z,10.27
2022-10-15T16:15:41.689Z,3.37
2022-10-15T16:18:09.177Z,3.60
2022-10-15T16:20:39.221Z,3.57
2022-10-15T16:23:05.898Z,7.57
2022-10-15T16:25:32.983Z,3.43
2022-10-15T16:28:02.037Z,3.23
2022-10-15T16:30:29.033Z,2.90
2022-10-15T16:32:55.848Z,8.80
2022-10-15T16:35:22.785Z,4.80
2022-10-15T16:37:52.461Z,3.70
2022-10-15T16:40:19.449Z,4.80
2022-10-15T16:42:46.193Z,4.33
2022-10-15T16:45:12.766Z,7.60
2022-10-15T16:47:39.374Z,5.47
2022-10-15T16:50:06.773Z,5.30
2022-10-15T16:52:34.145Z,5.43
2022-10-15T16:55:00.652Z,4.50
2022-10-15T16:57:27.222Z,4.20
2022-10-15T16:59:53.773Z,6.13
2022-10-15T17:02:20.297Z,5.03
2022-10-15T17:04:46.938Z,4.60
2022-10-15T17:07:13.462Z,4.33
2022-10-15T17:09:40.238Z,4.00
2022-10-15T17:12:06.879Z,4.70
2022-10-15T17:14:33.441Z,7.80
2022-10-15T17:17:00.459Z,10.63
2022-10-15T17:19:30.383Z,7.67
2022-10-15T17:21:59.857Z,6.40
2022-10-15T17:24:26.410Z,4.83
2022-10-15T17:26:54.659Z,6.40
2022-10-15T17:29:22.916Z,5.83
2022-10-15T17:31:50.774Z,4.40
2022-10-15T17:34:17.966Z,5.80
2022-10-15T17:36:47.282Z,4.00
2022-10-15T17:39:19.985Z,8.43
2022-10-15T17:41:47.563Z,4.93
2022-10-15T17:44:14.637Z,3.90
2022-10-15T17:46:41.887Z,3.70
2022-10-15T17:49:11.147Z,3.47
2022-10-15T17:51:39.375Z,3.43
2022-10-15T17:54:06.164Z,5.20
2022-10-15T17:56:34.691Z,3.00
2022-10-15T17:59:04.660Z,4.10
2022-10-15T18:01:56.230Z,6.10
2022-10-15T18:04:20.436Z,4.23
2022-10-15T18:06:46.971Z,33.57
2022-10-15T18:09:24.501Z,7.40
2022-10-15T18:11:55.555Z,3.50
2022-10-15T18:14:28.741Z,4.30
2022-10-15T18:16:55.720Z,4.27
2022-10-15T18:19:22.354Z,6.40
2022-10-15T18:21:49.675Z,10.30
2022-10-15T18:24:21.061Z,4.70
2022-10-15T18:26:48.854Z,5.90
2022-10-15T18:29:15.827Z,4.03
2022-10-15T18:31:43.459Z,5.00
2022-10-15T18:34:10.264Z,4.23
2022-10-15T18:36:37.748Z,4.70
2022-10-15T18:39:04.498Z,2.97
2022-10-15T18:41:33.647Z,14.30
2022-10-15T18:44:03.298Z,3.13
2022-10-15T18:46:33.923Z,2.83
2022-10-15T18:49:02.225Z,2.90
2022-10-15T18:51:31.244Z,8.10
2022-10-15T18:54:00.019Z,3.83
2022-10-15T18:56:26.839Z,2.93
2022-10-15T18:58:54.538Z,3.17
2022-10-15T19:01:36.522Z,3.10
2022-10-15T19:04:06.361Z,3.40
2022-10-15T19:06:39.757Z,2.73
2022-10-15T19:09:09.033Z,3.80
2022-10-15T19:11:36.508Z,6.33
2022-10-15T19:14:03.733Z,3.03
2022-10-15T19:16:30.516Z,3.80
2022-10-15T19:19:03.028Z,3.17
2022-10-15T19:21:29.676Z,3.40
2022-10-15T19:23:56.506Z,2.60
2022-10-15T19:26:23.345Z,2.83
2022-10-15T19:28:51.976Z,3.10
2022-10-15T19:31:27.946Z,10.80
2022-10-15T19:33:55.646Z,6.40
2022-10-15T19:36:24.286Z,3.00
2022-10-15T19:38:51.492Z,2.40
2022-10-15T19:41:19.006Z,5.70
2022-10-15T19:43:45.877Z,2.00
2022-10-15T19:46:12.464Z,2.27
2022-10-15T19:48:41.393Z,2.60
2022-10-15T19:51:08.337Z,3.40
2022-10-15T19:53:35.443Z,4.40
2022-10-15T19:56:08.157Z,6.40
2022-10-15T19:58:35.405Z,7.70
2022-10-15T20:01:02.844Z,3.13
2022-10-15T20:03:30.218Z,2.67
2022-10-15T20:06:00.465Z,17.37
2022-10-15T20:08:27.085Z,3.43
2022-10-15T20:10:53.710Z,3.33
2022-10-15T20:13:22.619Z,3.07
2022-10-15T20:15:51.643Z,6.33
2022-10-15T20:18:19.397Z,8.83
2022-10-15T20:20:46.513Z,4.93
2022-10-15T20:23:15.506Z,4.63
2022-10-15T20:25:42.826Z,4.03
2022-10-15T20:28:11.111Z,5.37
2022-10-15T20:30:38.850Z,3.80
2022-10-15T20:33:06.770Z,3.47
2022-10-15T20:35:35.014Z,3.57
2022-10-15T20:38:02.056Z,10.23
2022-10-15T20:40:29.133Z,3.90
2022-10-15T20:42:55.986Z,4.43
2022-10-15T20:45:23.379Z,5.37
2022-10-15T20:47:51.874Z,5.63
2022-10-15T20:50:24.637Z,5.67
2022-10-15T20:52:51.817Z,5.70
2022-10-15T20:55:18.853Z,5.43
2022-10-15T20:57:46.016Z,5.10
2022-10-15T21:00:13.564Z,7.67
2022-10-15T21:02:41.565Z,10.90
2022-10-15T21:05:09.431Z,5.77
2022-10-15T21:07:36.107Z,6.50
2022-10-15T21:10:02.874Z,5.50
2022-10-15T21:12:29.749Z,6.80
2022-10-15T21:14:57.084Z,6.90
2022-10-15T21:17:24.476Z,6.40
2022-10-15T21:19:52.979Z,5.83
2022-10-15T21:22:20.548Z,6.17
2022-10-15T21:24:47.621Z,7.20
2022-10-15T21:27:14.539Z,6.60
2022-10-15T21:29:42.717Z,6.90
2022-10-15T21:32:09.561Z,7.17
2022-10-15T21:34:36.193Z,8.93
2022-10-15T21:37:03.072Z,8.10
2022-10-15T21:39:29.793Z,10.20
2022-10-15T21:41:56.450Z,11.17
2022-10-15T21:44:23.027Z,8.10
2022-10-15T21:46:49.593Z,9.97
2022-10-15T21:49:16.139Z,6.00
2022-10-15T21:51:42.702Z,6.53
2022-10-15T21:54:09.472Z,7.40
2022-10-15T21:56:36.778Z,6.43
2022-10-15T21:59:04.413Z,10.37
2022-10-15T22:01:35.234Z,6.00
2022-10-15T22:04:04.647Z,6.33
2022-10-15T22:06:32.113Z,5.83
2022-10-15T22:08:59.781Z,9.77
2022-10-15T22:11:29.168Z,4.87
2022-10-15T22:13:58.233Z,6.00
2022-10-15T22:16:27.026Z,8.33
2022-10-15T22:18:55.054Z,5.60
2022-10-15T22:21:25.411Z,11.60
2022-10-15T22:23:59.755Z,4.80
2022-10-15T22:26:32.801Z,3.87
2022-10-15T22:29:01.995Z,4.87
2022-10-15T22:31:29.449Z,4.67
2022-10-15T22:33:58.400Z,3.73
2022-10-15T22:36:27.915Z,7.50
2022-10-15T22:41:30.454Z,3.83
2022-10-15T22:43:57.775Z,3.70
2022-10-15T22:46:25.059Z,14.50
2022-10-15T22:48:53.651Z,3.80
2022-10-15T22:51:21.342Z,8.23
2022-10-15T22:53:48.130Z,4.17
2022-10-15T22:56:18.082Z,6.50
2022-10-15T22:58:45.665Z,3.90
2022-10-15T23:01:14.073Z,5.30
2022-10-15T23:03:43.383Z,3.17
2022-10-15T23:06:10.817Z,4.70
2022-10-15T23:08:37.898Z,3.30
2022-10-15T23:11:19.222Z,11.93
2022-10-15T23:13:47.909Z,4.73
2022-10-15T23:16:17.834Z,2.87
2022-10-15T23:18:47.207Z,3.70
2022-10-15T23:21:17.074Z,2.47
2022-10-15T23:23:44.718Z,5.13
2022-10-15T23:26:13.711Z,8.73
2022-10-15T23:28:41.586Z,4.00
2022-10-15T23:31:15.223Z,1.90
2022-10-15T23:33:41.918Z,1.73
2022-10-15T23:36:09.467Z,1.43
2022-10-15T23:38:35.992Z,2.50
2022-10-15T23:41:07.547Z,1.80
2022-10-15T23:43:34.657Z,2.00
2022-10-15T23:46:01.301Z,5.53
2022-10-15T23:48:28.770Z,2.40
2022-10-15T23:51:00.890Z,3.90
2022-10-15T23:53:32.673Z,3.53
2022-10-15T23:56:01.773Z,1.43
2022-10-15T23:58:28.432Z,1.63
